createdAt,value
2019-04-30T00:00:55.294Z,10.27
2019-04-30T00:03:30.146Z,10.17
2019-04-30T00:06:00.717Z,10.21
2019-04-30T00:08:35.559Z,10.19
2019-04-30T00:11:05.223Z,10.22
2019-04-30T00:13:35.971Z,10.24
2019-04-30T00:16:06.407Z,10.25
2019-04-30T00:18:39.582Z,10.31
2019-04-30T00:21:10.003Z,10.36
2019-04-30T00:23:41.484Z,10.40
2019-04-30T00:26:12.012Z,10.36
2019-04-30T00:28:46.235Z,10.38
2019-04-30T00:31:17.616Z,10.38
2019-04-30T00:33:47.079Z,10.34
2019-04-30T00:36:17.528Z,10.36
2019-04-30T00:38:48.091Z,10.36
2019-04-30T00:41:18.540Z,10.43
2019-04-30T00:43:50.748Z,10.53
2019-04-30T00:46:25.062Z,10.54
2019-04-30T00:48:56.806Z,10.47
2019-04-30T00:51:26.357Z,10.39
2019-04-30T00:53:56.890Z,10.37
2019-04-30T00:56:28.358Z,10.37
2019-04-30T00:59:02.414Z,10.45
2019-04-30T01:01:48.738Z,10.44
2019-04-30T01:04:28.001Z,10.39
2019-04-30T01:07:00.290Z,10.44
2019-04-30T01:09:29.285Z,10.41
2019-04-30T01:11:59.812Z,10.38
2019-04-30T01:14:31.995Z,10.38
2019-04-30T01:17:03.751Z,10.42
2019-04-30T01:19:35.393Z,10.41
2019-04-30T01:22:05.907Z,10.44
2019-04-30T01:24:38.641Z,10.37
2019-04-30T01:27:10.629Z,10.32
2019-04-30T01:29:44.344Z,10.43
2019-04-30T01:32:17.572Z,10.43
2019-04-30T01:34:49.845Z,10.32
2019-04-30T01:37:20.344Z,10.38
2019-04-30T01:39:50.716Z,10.38
2019-04-30T01:42:21.348Z,10.36
2019-04-30T01:44:53.840Z,10.36
2019-04-30T01:47:27.639Z,10.26
2019-04-30T01:50:00.987Z,10.35
2019-04-30T01:52:35.117Z,10.29
2019-04-30T01:55:02.359Z,10.40
2019-04-30T01:57:34.334Z,10.40
2019-04-30T02:00:14.005Z,10.45
2019-04-30T02:02:46.155Z,10.45
2019-04-30T02:05:18.767Z,10.44
2019-04-30T02:07:49.359Z,10.44
2019-04-30T02:10:20.032Z,10.45
2019-04-30T02:12:50.615Z,10.29
2019-04-30T02:15:21.137Z,10.40
2019-04-30T02:17:51.608Z,10.22
2019-04-30T02:20:22.220Z,10.22
2019-04-30T02:22:52.640Z,10.31
2019-04-30T02:25:23.212Z,10.24
2019-04-30T02:27:53.669Z,10.17
2019-04-30T02:30:24.264Z,10.30
2019-04-30T02:32:56.027Z,10.24
2019-04-30T02:35:37.339Z,10.35
2019-04-30T02:38:12.264Z,10.27
2019-04-30T02:40:43.049Z,10.30
2019-04-30T02:43:14.597Z,10.37
2019-04-30T02:45:49.583Z,10.39
2019-04-30T02:48:22.387Z,10.39
2019-04-30T02:50:55.692Z,10.54
2019-04-30T02:53:51.690Z,10.45
2019-04-30T02:56:26.519Z,10.56
2019-04-30T02:58:56.072Z,10.66
2019-04-30T03:01:26.544Z,10.66
2019-04-30T03:03:59.561Z,10.59
2019-04-30T03:06:30.340Z,10.69
2019-04-30T03:09:01.434Z,10.50
2019-04-30T03:11:32.047Z,10.37
2019-04-30T03:14:02.492Z,10.64
2019-04-30T03:16:39.965Z,10.72
2019-04-30T03:19:23.183Z,10.72
2019-04-30T03:22:01.191Z,10.80
2019-04-30T03:24:31.605Z,10.79
2019-04-30T03:27:02.338Z,10.71
2019-04-30T03:29:33.025Z,10.78
2019-04-30T03:32:03.823Z,10.71
2019-04-30T03:34:34.346Z,10.46
2019-04-30T03:37:04.794Z,10.46
2019-04-30T03:39:35.370Z,10.55
2019-04-30T03:42:05.894Z,10.43
2019-04-30T03:44:36.295Z,10.58
2019-04-30T03:47:07.044Z,10.68
2019-04-30T03:49:40.101Z,10.59
2019-04-30T03:52:13.116Z,10.59
2019-04-30T03:54:42.114Z,10.62
2019-04-30T03:57:12.579Z,10.67
2019-04-30T03:59:43.100Z,10.85
2019-04-30T04:02:15.224Z,10.88
2019-04-30T04:04:53.318Z,10.98
2019-04-30T04:07:29.997Z,11.11
2019-04-30T04:10:02.195Z,11.17
2019-04-30T04:12:32.713Z,11.37
2019-04-30T04:15:04.210Z,11.36
2019-04-30T04:17:34.765Z,11.31
2019-04-30T04:20:06.631Z,11.05
2019-04-30T04:22:40.096Z,11.22
2019-04-30T04:25:13.277Z,11.35
2019-04-30T04:27:42.419Z,11.39
2019-04-30T04:30:12.942Z,11.08
2019-04-30T04:32:43.516Z,10.99
2019-04-30T04:35:14.170Z,10.96
2019-04-30T04:37:44.783Z,10.96
2019-04-30T04:40:15.189Z,11.07
2019-04-30T04:42:45.793Z,11.29
2019-04-30T04:45:16.205Z,11.14
2019-04-30T04:47:46.796Z,10.92
2019-04-30T04:50:19.867Z,10.97
2019-04-30T04:52:49.820Z,10.88
2019-04-30T04:55:22.274Z,10.88
2019-04-30T04:57:52.639Z,11.13
2019-04-30T05:00:23.229Z,11.35
2019-04-30T05:02:59.339Z,11.57
2019-04-30T05:05:30.048Z,11.98
2019-04-30T05:08:00.544Z,12.38
2019-04-30T05:10:31.091Z,12.58
2019-04-30T05:13:01.548Z,12.62
2019-04-30T05:15:31.995Z,12.87
2019-04-30T05:18:02.597Z,13.08
2019-04-30T05:20:33.141Z,13.08
2019-04-30T05:23:03.705Z,13.72
2019-04-30T05:25:34.562Z,13.84
2019-04-30T05:28:05.444Z,13.89
2019-04-30T05:30:36.061Z,14.00
2019-04-30T05:33:18.510Z,14.21
2019-04-30T05:35:49.691Z,14.50
2019-04-30T05:38:20.117Z,14.47
2019-04-30T05:40:50.560Z,14.04
2019-04-30T05:43:21.023Z,13.79
2019-04-30T05:45:51.560Z,13.77
2019-04-30T05:48:22.037Z,13.57
2019-04-30T05:50:52.433Z,13.59
2019-04-30T05:53:22.872Z,13.61
2019-04-30T05:55:53.267Z,13.81
2019-04-30T05:58:23.763Z,13.83
2019-04-30T06:00:54.216Z,14.14
2019-04-30T06:03:28.149Z,14.30
2019-04-30T06:05:56.760Z,14.27
2019-04-30T06:08:29.317Z,14.38
2019-04-30T06:11:04.466Z,14.37
2019-04-30T06:13:38.385Z,14.19
2019-04-30T06:16:10.314Z,14.17
2019-04-30T06:18:42.298Z,14.37
2019-04-30T06:21:12.904Z,14.42
2019-04-30T06:23:43.559Z,14.66
2019-04-30T06:26:14.482Z,15.03
2019-04-30T06:28:45.145Z,15.15
2019-04-30T06:31:15.591Z,15.57
2019-04-30T06:33:46.285Z,15.54
2019-04-30T06:36:19.030Z,15.54
2019-04-30T06:38:49.190Z,15.49
2019-04-30T06:41:19.876Z,15.74
2019-04-30T06:43:51.467Z,15.56
2019-04-30T06:46:22.030Z,15.58
2019-04-30T06:48:53.266Z,15.83
2019-04-30T06:51:23.865Z,16.11
2019-04-30T06:53:54.434Z,16.19
2019-04-30T06:56:25.071Z,16.35
2019-04-30T06:58:55.662Z,16.42
2019-04-30T07:01:29.029Z,16.47
2019-04-30T07:04:01.010Z,16.90
2019-04-30T07:06:36.690Z,17.28
2019-04-30T07:09:08.877Z,16.99
2019-04-30T07:11:40.938Z,17.09
2019-04-30T07:14:11.489Z,17.25
2019-04-30T07:16:41.894Z,17.09
2019-04-30T07:19:12.375Z,17.38
2019-04-30T07:21:45.227Z,17.74
2019-04-30T07:24:15.184Z,18.03
2019-04-30T07:26:45.599Z,18.55
2019-04-30T07:29:16.193Z,18.74
2019-04-30T07:31:46.608Z,18.32
2019-04-30T07:34:19.488Z,18.47
2019-04-30T07:37:09.639Z,18.63
2019-04-30T07:39:23.562Z,18.45
2019-04-30T07:41:53.575Z,18.46
2019-04-30T07:44:33.802Z,18.54
2019-04-30T07:46:56.227Z,18.71
2019-04-30T07:49:45.960Z,18.71
2019-04-30T07:52:01.137Z,18.69
2019-04-30T07:54:30.889Z,18.77
2019-04-30T07:57:01.325Z,18.55
2019-04-30T07:59:31.863Z,18.51
2019-04-30T08:02:10.022Z,18.51
2019-04-30T08:04:45.005Z,18.35
2019-04-30T08:07:15.545Z,18.64
2019-04-30T08:09:46.103Z,19.04
2019-04-30T08:12:26.286Z,19.44
2019-04-30T08:14:49.598Z,19.71
2019-04-30T08:17:20.100Z,20.09
2019-04-30T08:19:50.553Z,20.18
2019-04-30T08:22:21.341Z,19.91
2019-04-30T08:24:52.003Z,20.19
2019-04-30T08:27:22.546Z,20.16
2019-04-30T08:29:54.336Z,20.17
2019-04-30T08:32:24.925Z,19.97
2019-04-30T08:34:55.396Z,20.50
2019-04-30T08:37:25.975Z,20.94
2019-04-30T08:39:59.367Z,20.65
2019-04-30T08:42:33.929Z,21.13
2019-04-30T08:45:01.607Z,21.33
2019-04-30T08:47:32.066Z,21.07
2019-04-30T08:50:05.961Z,20.70
2019-04-30T08:52:36.744Z,21.05
2019-04-30T08:55:16.147Z,21.58
2019-04-30T08:57:41.011Z,21.82
2019-04-30T09:00:15.199Z,21.92
2019-04-30T09:02:50.774Z,20.97
2019-04-30T09:05:23.422Z,21.25
2019-04-30T09:07:55.553Z,21.78
2019-04-30T09:10:26.819Z,21.53
2019-04-30T09:12:59.785Z,22.13
2019-04-30T09:15:30.686Z,22.30
2019-04-30T09:18:07.100Z,22.30
2019-04-30T09:20:34.988Z,22.80
2019-04-30T09:23:10.964Z,22.40
2019-04-30T09:25:41.065Z,22.67
2019-04-30T09:28:19.841Z,23.05
2019-04-30T09:30:58.737Z,22.87
2019-04-30T09:33:34.781Z,22.88
2019-04-30T09:36:09.028Z,22.52
2019-04-30T09:38:39.884Z,21.86
2019-04-30T09:41:10.528Z,22.13
2019-04-30T09:43:41.309Z,21.92
2019-04-30T09:46:21.275Z,21.77
2019-04-30T09:48:45.458Z,21.57
2019-04-30T09:51:16.761Z,21.66
2019-04-30T09:53:56.809Z,22.15
2019-04-30T09:56:30.146Z,22.19
2019-04-30T09:59:06.009Z,22.94
2019-04-30T10:01:42.022Z,23.33
2019-04-30T10:04:20.277Z,23.03
2019-04-30T10:06:53.624Z,23.13
2019-04-30T10:09:25.971Z,23.63
2019-04-30T10:12:07.045Z,23.05
2019-04-30T10:14:40.789Z,22.87
2019-04-30T10:17:23.495Z,22.67
2019-04-30T10:19:54.094Z,22.98
2019-04-30T10:22:24.736Z,22.95
2019-04-30T10:25:09.279Z,22.78
2019-04-30T10:27:41.451Z,22.91
2019-04-30T10:30:13.469Z,23.01
2019-04-30T10:32:44.232Z,23.36
2019-04-30T10:35:18.376Z,23.79
2019-04-30T10:37:50.739Z,23.68
2019-04-30T10:40:23.546Z,23.09
2019-04-30T10:42:58.807Z,22.90
2019-04-30T10:45:30.177Z,23.55
2019-04-30T10:48:00.936Z,23.65
2019-04-30T10:50:31.499Z,23.80
2019-04-30T10:53:02.192Z,23.80
2019-04-30T10:55:33.162Z,23.89
2019-04-30T10:58:25.505Z,24.37
2019-04-30T11:01:02.016Z,24.65
2019-04-30T11:03:35.092Z,24.30
2019-04-30T11:06:05.687Z,23.60
2019-04-30T11:08:36.322Z,23.94
2019-04-30T11:11:06.954Z,24.33
2019-04-30T11:13:37.480Z,24.68
2019-04-30T11:16:14.624Z,24.27
2019-04-30T11:18:40.464Z,24.39
2019-04-30T11:21:11.470Z,24.46
2019-04-30T11:23:42.353Z,24.19
2019-04-30T11:26:13.822Z,24.78
2019-04-30T11:28:45.137Z,24.75
2019-04-30T11:31:26.852Z,24.78
2019-04-30T11:33:59.264Z,23.77
2019-04-30T11:36:29.797Z,24.19
2019-04-30T11:39:00.701Z,24.43
2019-04-30T11:41:33.311Z,24.41
2019-04-30T11:44:03.669Z,24.13
2019-04-30T11:46:54.270Z,23.10
2019-04-30T11:49:24.919Z,22.99
2019-04-30T11:51:55.592Z,23.69
2019-04-30T11:54:26.221Z,23.70
2019-04-30T11:56:58.674Z,24.01
2019-04-30T11:59:29.765Z,23.48
2019-04-30T12:02:02.119Z,23.13
2019-04-30T12:04:32.683Z,22.97
2019-04-30T12:07:13.549Z,23.58
2019-04-30T12:10:01.783Z,23.34
2019-04-30T12:12:32.200Z,23.63
2019-04-30T12:15:02.935Z,24.00
2019-04-30T12:17:33.471Z,24.37
2019-04-30T12:20:08.647Z,24.66
2019-04-30T12:23:03.861Z,24.46
2019-04-30T12:30:58.813Z,24.42
2019-04-30T12:32:12.526Z,24.01
2019-04-30T12:34:52.475Z,24.50
2019-04-30T12:37:24.659Z,24.95
2019-04-30T12:39:59.386Z,25.14
2019-04-30T12:42:44.337Z,24.77
2019-04-30T12:45:19.991Z,24.91
2019-04-30T12:48:10.589Z,24.72
2019-04-30T12:50:53.998Z,24.03
2019-04-30T12:53:32.186Z,23.05
2019-04-30T12:56:09.015Z,22.78
2019-04-30T12:58:43.875Z,23.01
2019-04-30T13:01:16.617Z,23.28
2019-04-30T13:03:58.122Z,23.32
2019-04-30T13:06:22.800Z,23.44
2019-04-30T13:08:56.573Z,23.24
2019-04-30T13:14:51.723Z,23.61
2019-04-30T13:17:45.606Z,23.61
2019-04-30T13:47:32.299Z,21.87
2019-04-30T13:50:09.334Z,22.30
2019-04-30T13:52:41.134Z,22.20
2019-04-30T13:55:19.266Z,21.92
2019-04-30T13:57:51.001Z,21.75
2019-04-30T14:00:35.336Z,21.43
2019-04-30T14:03:33.024Z,21.21
2019-04-30T14:06:05.812Z,21.21
2019-04-30T14:08:51.389Z,20.99
2019-04-30T14:41:27.372Z,18.63
2019-04-30T15:01:13.349Z,18.27
2019-04-30T15:37:34.110Z,17.14
2019-04-30T16:04:01.485Z,15.80
2019-04-30T16:06:44.676Z,15.65
2019-04-30T16:10:14.350Z,15.61
2019-04-30T16:16:14.362Z,15.39
2019-04-30T16:58:02.096Z,14.77
2019-04-30T17:00:39.329Z,14.72
2019-04-30T17:03:21.784Z,14.63
2019-04-30T17:06:19.445Z,14.65
2019-04-30T17:08:55.404Z,14.73
2019-04-30T17:11:49.044Z,14.54
2019-04-30T17:14:20.834Z,14.47
2019-04-30T17:16:51.834Z,14.42
2019-04-30T17:19:34.280Z,14.32
2019-04-30T17:22:06.005Z,14.19
2019-04-30T17:24:39.224Z,14.00
2019-04-30T17:27:18.045Z,13.89
2019-04-30T17:29:49.886Z,13.90
2019-04-30T17:32:20.591Z,13.86
2019-04-30T17:34:51.478Z,13.76
2019-04-30T17:37:22.705Z,13.60
2019-04-30T17:39:53.673Z,13.51
2019-04-30T17:42:42.943Z,13.50
2019-04-30T17:45:16.955Z,13.48
2019-04-30T17:47:50.738Z,13.22
2019-04-30T17:50:37.078Z,13.26
2019-04-30T17:53:13.130Z,13.12
2019-04-30T17:55:44.262Z,13.12
2019-04-30T17:58:15.262Z,13.04
2019-04-30T18:00:48.763Z,13.07
2019-04-30T18:03:21.234Z,12.88
2019-04-30T18:05:52.011Z,12.91
2019-04-30T18:08:28.022Z,12.79
2019-04-30T18:10:55.387Z,12.72
2019-04-30T18:13:25.991Z,12.73
2019-04-30T18:15:56.539Z,12.57
2019-04-30T18:18:28.592Z,12.50
2019-04-30T18:21:03.804Z,12.52
2019-04-30T18:23:38.510Z,12.54
2019-04-30T18:26:13.507Z,12.51
2019-04-30T18:28:43.862Z,12.44
2019-04-30T18:31:14.332Z,12.26
2019-04-30T18:33:44.764Z,12.32
2019-04-30T18:36:15.324Z,12.18
2019-04-30T18:38:45.942Z,12.05
2019-04-30T18:41:16.410Z,11.96
2019-04-30T18:43:48.580Z,11.98
2019-04-30T18:46:19.243Z,12.07
2019-04-30T18:48:52.594Z,12.05
2019-04-30T18:51:33.871Z,12.00
2019-04-30T18:53:54.251Z,11.96
2019-04-30T18:56:24.637Z,11.84
2019-04-30T18:58:55.218Z,11.65
2019-04-30T19:01:25.656Z,11.70
2019-04-30T19:03:56.213Z,11.62
2019-04-30T19:06:26.825Z,11.58
2019-04-30T19:09:10.666Z,11.48
2019-04-30T19:11:59.362Z,11.54
2019-04-30T19:14:49.194Z,11.66
2019-04-30T19:17:24.146Z,11.66
2019-04-30T19:20:12.458Z,11.57
2019-04-30T19:22:42.861Z,11.55
2019-04-30T19:25:13.299Z,11.51
2019-04-30T19:27:43.733Z,11.51
2019-04-30T19:30:14.478Z,11.68
2019-04-30T19:32:44.919Z,11.66
2019-04-30T19:35:15.478Z,11.68
2019-04-30T19:37:45.903Z,11.60
2019-04-30T19:40:16.353Z,11.56
2019-04-30T19:42:48.904Z,11.59
2019-04-30T19:45:18.976Z,11.62
2019-04-30T19:47:49.478Z,11.62
2019-04-30T19:50:19.947Z,11.60
2019-04-30T19:52:50.364Z,11.68
2019-04-30T19:55:20.826Z,11.62
2019-04-30T19:57:51.245Z,11.55
2019-04-30T20:00:22.297Z,11.60
2019-04-30T20:02:52.728Z,11.53
2019-04-30T20:05:23.266Z,11.53
2019-04-30T20:07:53.685Z,11.51
2019-04-30T20:10:24.165Z,11.55
2019-04-30T20:12:54.592Z,11.55
2019-04-30T20:15:25.047Z,11.56
2019-04-30T20:17:55.480Z,11.65
2019-04-30T20:20:25.936Z,11.53
2019-04-30T20:22:56.354Z,11.57
2019-04-30T20:25:26.819Z,11.55
2019-04-30T20:27:57.291Z,11.51
2019-04-30T20:30:29.219Z,11.47
2019-04-30T20:32:59.659Z,11.50
2019-04-30T20:35:30.139Z,11.52
2019-04-30T20:38:19.467Z,11.63
2019-04-30T20:41:00.258Z,11.60
2019-04-30T20:43:23.923Z,11.57
2019-04-30T20:45:54.395Z,11.47
2019-04-30T20:48:24.832Z,11.46
2019-04-30T20:50:55.319Z,11.54
2019-04-30T20:53:25.660Z,11.59
2019-04-30T20:55:56.112Z,11.65
2019-04-30T20:58:26.516Z,11.60
2019-04-30T21:01:03.405Z,11.59
2019-04-30T21:03:29.656Z,11.58
2019-04-30T21:06:00.614Z,11.70
2019-04-30T21:08:31.037Z,11.67
2019-04-30T21:11:01.427Z,11.70
2019-04-30T21:13:31.824Z,11.71
2019-04-30T21:16:02.279Z,11.57
2019-04-30T21:18:33.640Z,11.55
2019-04-30T21:21:04.099Z,11.50
2019-04-30T21:23:34.538Z,11.53
2019-04-30T21:26:05.011Z,11.49
2019-04-30T21:28:35.339Z,11.54
2019-04-30T21:31:23.520Z,11.47
2019-04-30T21:33:58.129Z,11.38
2019-04-30T21:36:28.484Z,11.32
2019-04-30T21:38:59.106Z,11.40
2019-04-30T21:41:29.812Z,11.25
2019-04-30T21:44:00.295Z,11.26
2019-04-30T21:46:30.801Z,11.36
2019-04-30T21:49:01.214Z,11.24
2019-04-30T21:51:31.698Z,11.28
2019-04-30T21:54:02.132Z,11.19
2019-04-30T21:56:32.612Z,11.08
2019-04-30T21:59:03.022Z,11.03
2019-04-30T22:01:33.500Z,10.96
2019-04-30T22:04:04.032Z,10.95
2019-04-30T22:06:34.566Z,10.81
2019-04-30T22:09:07.171Z,10.76
2019-04-30T22:11:39.476Z,10.85
2019-04-30T22:14:09.971Z,10.84
2019-04-30T22:16:40.426Z,10.81
2019-04-30T22:19:10.849Z,10.81
2019-04-30T22:21:41.342Z,10.78
2019-04-30T22:24:11.772Z,10.78
2019-04-30T22:26:42.240Z,10.85
2019-04-30T22:29:12.667Z,10.80
2019-04-30T22:31:44.107Z,10.88
2019-04-30T22:34:14.530Z,10.84
2019-04-30T22:36:48.662Z,10.73
2019-04-30T22:39:20.175Z,10.73
2019-04-30T22:41:50.611Z,10.68
2019-04-30T22:44:21.025Z,10.70
2019-04-30T22:46:51.509Z,10.62
2019-04-30T22:49:21.942Z,10.56
2019-04-30T22:51:52.409Z,10.57
2019-04-30T22:54:22.852Z,10.60
2019-04-30T22:56:53.310Z,10.52
2019-04-30T22:59:23.660Z,10.57
2019-04-30T23:02:04.507Z,10.57
2019-04-30T23:04:39.242Z,10.58
2019-04-30T23:07:09.781Z,10.58
2019-04-30T23:09:40.207Z,10.52
2019-04-30T23:12:10.762Z,10.55
2019-04-30T23:14:41.095Z,10.61
2019-04-30T23:17:11.617Z,10.57
2019-04-30T23:19:49.183Z,10.67
2019-04-30T23:22:14.316Z,10.78
2019-04-30T23:24:44.758Z,10.80
2019-04-30T23:27:15.271Z,10.80
2019-04-30T23:29:45.731Z,10.90
2019-04-30T23:32:16.239Z,10.87
2019-04-30T23:34:46.698Z,10.69
2019-04-30T23:37:17.168Z,10.83
2019-04-30T23:39:47.682Z,10.69
2019-04-30T23:42:18.169Z,10.78
2019-04-30T23:44:48.652Z,10.79
2019-04-30T23:47:19.120Z,10.79
2019-04-30T23:49:49.546Z,10.73
2019-04-30T23:52:20.065Z,10.85
2019-04-30T23:54:50.483Z,10.83
2019-04-30T23:57:20.948Z,10.83
2019-04-30T23:59:51.381Z,10.85
